Time;durP1;ratioP1;P1;durP2;ratioP2;P2;SDS_P1;SDS_P2;PMS_P1;PMS_P2;Temp;Humidity;BMP_temperature;BMP_pressure;BME280_temperature;BME280_humidity;BME280_pressure;Samples;Min_cycle;Max_cycle;Signal;HPM_P1;HPM_P2
2021/08/26 00:01:01;;;;;;;;;;;16.40;99.90;;;;;;5076281;28;19970;-83
2021/08/26 00:06:18;;;;;;;;;;;16.40;99.90;;;;;;5075913;28;20371;-83
2021/08/26 00:08:48;;;;;;;;;;;16.40;99.90;;;;;;5075776;28;19925;-83
2021/08/26 00:11:19;;;;;;;;;;;16.40;99.90;;;;;;5075610;28;19974;-83
2021/08/26 00:13:47;;;;;;;;;;;16.40;99.90;;;;;;5075798;28;20388;-83
2021/08/26 00:16:18;;;;;;;;;;;16.40;99.90;;;;;;5075560;28;19929;-83
2021/08/26 00:18:45;;;;;;;;;;;16.40;99.90;;;;;;5075807;28;19925;-83
2021/08/26 00:21:14;;;;;;;;;;;16.30;99.90;;;;;;5076120;28;19924;-83
2021/08/26 00:23:43;;;;;;;;;;;16.30;99.90;;;;;;5076757;28;19924;-95
2021/08/26 00:26:12;;;;;;;;;;;16.30;99.90;;;;;;5078323;28;20263;-82
2021/08/26 00:28:39;;;;;;;;;;;16.30;99.90;;;;;;5075441;28;19925;-83
2021/08/26 00:31:06;;;;;;;;;;;16.20;99.90;;;;;;5075210;28;19924;-82
2021/08/26 00:33:39;;;;;;;;;;;16.20;99.90;;;;;;5075361;28;20280;-82
2021/08/26 00:36:07;;;;;;;;;;;16.30;99.90;;;;;;5075648;28;20233;-83
2021/08/26 00:38:35;;;;;;;;;;;16.30;99.90;;;;;;5075675;28;19950;-83
2021/08/26 00:41:03;;;;;;;;;;;16.30;99.90;;;;;;5075090;28;19931;-82
2021/08/26 00:43:30;;;;;;;;;;;16.30;99.90;;;;;;5075187;28;20333;-82
2021/08/26 00:45:59;;;;;;;;;;;16.40;99.90;;;;;;5075308;28;20046;-82
2021/08/26 00:48:27;;;;;;;;;;;16.40;99.90;;;;;;5075184;28;20348;-82
2021/08/26 00:50:55;;;;;;;;;;;16.50;99.90;;;;;;5074787;28;19939;-81
2021/08/26 00:53:24;;;;;;;;;;;16.50;99.90;;;;;;5075165;28;20349;-82
2021/08/26 00:55:52;;;;;;;;;;;16.40;99.90;;;;;;5075094;28;19935;-82
2021/08/26 00:58:19;;;;;;;;;;;16.50;99.90;;;;;;5075146;28;20358;-82
2021/08/26 01:00:46;;;;;;;;;;;16.50;99.90;;;;;;5075127;28;19936;-81
2021/08/26 01:03:13;;;;;;;;;;;16.60;99.90;;;;;;5075253;28;19924;-82
2021/08/26 01:05:42;;;;;;;;;;;16.60;99.90;;;;;;5075065;28;20273;-81
2021/08/26 01:08:18;;;;;;;;;;;16.60;99.90;;;;;;5075040;28;19924;-82
2021/08/26 01:10:47;;;;;;;;;;;16.60;99.90;;;;;;5074704;28;19931;-82
2021/08/26 01:13:15;;;;;;;;;;;16.70;99.90;;;;;;5074724;28;19935;-82
2021/08/26 01:16:00;;;;;;;;;;;16.70;99.90;;;;;;5075135;28;19924;-82
2021/08/26 01:18:31;;;;;;;;;;;16.70;99.90;;;;;;5074927;28;19935;-82
2021/08/26 01:20:59;;;;;;;;;;;16.70;99.90;;;;;;5074897;28;19928;-82
2021/08/26 01:23:29;;;;;;;;;;;16.70;99.90;;;;;;5074755;28;19924;-82
2021/08/26 01:26:02;;;;;;;;;;;16.70;99.90;;;;;;5075126;28;19924;-82
2021/08/26 01:28:32;;;;;;;;;;;16.70;99.90;;;;;;5076354;28;19950;-82
2021/08/26 01:31:01;;;;;;;;;;;16.70;99.90;;;;;;5078734;28;19935;-82
2021/08/26 01:33:29;;;;;;;;;;;16.80;99.90;;;;;;5078966;28;19924;-82
2021/08/26 01:35:59;;;;;;;;;;;16.70;99.90;;;;;;5078728;28;19925;-82
2021/08/26 01:38:30;;;;;;;;;;;16.80;99.90;;;;;;5078631;28;20364;-82
2021/08/26 01:41:02;;;;;;;;;;;16.70;99.90;;;;;;5078700;28;19959;-82
2021/08/26 01:43:34;;;;;;;;;;;16.70;99.90;;;;;;5078726;28;19986;-82
2021/08/26 01:46:02;;;;;;;;;;;16.80;99.90;;;;;;5078703;28;20303;-82
2021/08/26 01:48:31;;;;;;;;;;;16.80;99.90;;;;;;5078558;28;19924;-82
2021/08/26 01:51:00;;;;;;;;;;;16.80;99.90;;;;;;5078395;28;19925;-81
2021/08/26 01:53:28;;;;;;;;;;;16.80;99.90;;;;;;5078490;28;19925;-83
2021/08/26 01:55:58;;;;;;;;;;;16.80;99.90;;;;;;5078409;28;19928;-82
2021/08/26 01:58:34;;;;;;;;;;;16.80;99.90;;;;;;5077821;28;20241;-82
2021/08/26 02:01:02;;;;;;;;;;;16.80;99.90;;;;;;5078279;28;19990;-82
2021/08/26 02:03:30;;;;;;;;;;;16.80;99.90;;;;;;5078340;28;19934;-82
2021/08/26 02:05:58;;;;;;;;;;;16.80;99.90;;;;;;5078226;28;19924;-82
2021/08/26 02:08:28;;;;;;;;;;;16.80;99.90;;;;;;5077279;28;21272;-82
2021/08/26 02:10:56;;;;;;;;;;;16.80;99.90;;;;;;5078011;28;19924;-82
2021/08/26 02:13:25;;;;;;;;;;;16.80;99.90;;;;;;5077915;28;19924;-82
2021/08/26 02:15:55;;;;;;;;;;;16.80;99.90;;;;;;5078085;28;20260;-82
2021/08/26 02:18:24;;;;;;;;;;;16.90;99.90;;;;;;5078214;28;19925;-82
2021/08/26 02:20:54;;;;;;;;;;;16.90;99.90;;;;;;5077789;28;19931;-82
2021/08/26 02:23:22;;;;;;;;;;;16.90;99.90;;;;;;5077723;28;20337;-82
2021/08/26 02:25:50;;;;;;;;;;;16.80;99.90;;;;;;5073219;28;19939;-83
2021/08/26 02:28:18;;;;;;;;;;;16.90;99.90;;;;;;5077971;28;19935;-82
2021/08/26 02:30:47;;;;;;;;;;;16.90;99.90;;;;;;5077864;28;19935;-82
2021/08/26 02:33:27;;;;;;;;;;;16.90;99.90;;;;;;5077966;28;19925;-82
2021/08/26 02:35:55;;;;;;;;;;;16.90;99.90;;;;;;5077523;28;19939;-82
2021/08/26 02:38:23;;;;;;;;;;;16.90;99.90;;;;;;5077601;28;19929;-82
2021/08/26 02:40:51;;;;;;;;;;;16.90;99.90;;;;;;5077023;28;19925;-82
2021/08/26 02:43:19;;;;;;;;;;;16.90;99.90;;;;;;5077498;28;19924;-82
2021/08/26 02:45:48;;;;;;;;;;;16.90;99.90;;;;;;5077636;28;19951;-82
2021/08/26 02:48:17;;;;;;;;;;;16.90;99.90;;;;;;5077511;28;19928;-82
2021/08/26 02:50:45;;;;;;;;;;;16.90;99.90;;;;;;5077226;28;19929;-82
2021/08/26 02:53:12;;;;;;;;;;;16.90;99.90;;;;;;5077225;28;19925;-82
2021/08/26 02:55:41;;;;;;;;;;;16.90;99.90;;;;;;5077472;28;19934;-86
2021/08/26 02:58:08;;;;;;;;;;;16.90;99.90;;;;;;5077330;28;19932;-81
2021/08/26 03:00:35;;;;;;;;;;;16.90;99.90;;;;;;5077395;28;19939;-78
2021/08/26 03:03:02;;;;;;;;;;;16.90;99.90;;;;;;5077366;28;20340;-77
2021/08/26 03:05:30;;;;;;;;;;;16.90;99.90;;;;;;5077015;28;19924;-79
2021/08/26 03:07:57;;;;;;;;;;;16.90;99.90;;;;;;5077136;28;19925;-79
2021/08/26 03:10:23;;;;;;;;;;;16.90;99.90;;;;;;5077032;28;19990;-78
2021/08/26 03:12:50;;;;;;;;;;;16.90;99.90;;;;;;5076094;28;19924;-79
2021/08/26 03:15:17;;;;;;;;;;;16.90;99.90;;;;;;5076853;28;20241;-79
2021/08/26 03:17:44;;;;;;;;;;;16.90;99.90;;;;;;5076779;28;19935;-79
2021/08/26 03:20:11;;;;;;;;;;;16.90;99.90;;;;;;5076708;28;19928;-79
2021/08/26 03:22:41;;;;;;;;;;;16.90;99.90;;;;;;5076681;28;19924;-79
2021/08/26 03:25:09;;;;;;;;;;;16.90;99.90;;;;;;5076821;28;19924;-78
2021/08/26 03:27:37;;;;;;;;;;;16.90;99.90;;;;;;5077163;28;19924;-78
2021/08/26 03:30:05;;;;;;;;;;;16.90;99.90;;;;;;5076541;28;19967;-79
2021/08/26 03:32:32;;;;;;;;;;;16.90;99.90;;;;;;5076345;28;19931;-79
2021/08/26 03:35:00;;;;;;;;;;;16.90;99.90;;;;;;5076986;28;19931;-79
2021/08/26 03:37:27;;;;;;;;;;;16.90;99.90;;;;;;5076470;28;19930;-79
2021/08/26 03:39:56;;;;;;;;;;;16.90;99.90;;;;;;5076430;28;19928;-79
2021/08/26 03:42:24;;;;;;;;;;;16.90;99.90;;;;;;5076789;28;19935;-79
2021/08/26 03:44:51;;;;;;;;;;;16.90;99.90;;;;;;5076577;28;19931;-79
2021/08/26 03:47:19;;;;;;;;;;;16.90;99.90;;;;;;5076695;28;19925;-79
2021/08/26 03:49:50;;;;;;;;;;;16.90;99.90;;;;;;5076309;28;19928;-79
2021/08/26 03:52:18;;;;;;;;;;;16.90;99.90;;;;;;5074744;28;19939;-79
2021/08/26 03:54:45;;;;;;;;;;;16.90;99.90;;;;;;5075857;28;20244;-79
2021/08/26 03:57:14;;;;;;;;;;;16.90;99.90;;;;;;5076063;28;19924;-79
2021/08/26 03:59:41;;;;;;;;;;;16.90;99.90;;;;;;5075916;28;19924;-79
2021/08/26 04:02:09;;;;;;;;;;;16.90;99.90;;;;;;5075943;28;20340;-79
2021/08/26 04:04:39;;;;;;;;;;;16.90;99.90;;;;;;5076125;28;19924;-81
2021/08/26 04:07:08;;;;;;;;;;;16.90;99.90;;;;;;5075678;28;19925;-80
2021/08/26 04:09:36;;;;;;;;;;;16.90;99.90;;;;;;5075847;28;19928;-80
2021/08/26 04:12:04;;;;;;;;;;;16.90;99.90;;;;;;5075728;28;19925;-80
2021/08/26 04:14:33;;;;;;;;;;;16.80;99.90;;;;;;5075813;28;19924;-80
2021/08/26 04:17:02;;;;;;;;;;;16.90;99.90;;;;;;5075929;28;19925;-80
2021/08/26 04:19:30;;;;;;;;;;;16.90;99.90;;;;;;5075987;28;19925;-80
2021/08/26 04:21:58;;;;;;;;;;;16.90;99.90;;;;;;5075648;28;19925;-79
2021/08/26 04:24:26;;;;;;;;;;;16.90;99.90;;;;;;5075563;28;19939;-80
2021/08/26 04:26:54;;;;;;;;;;;16.90;99.90;;;;;;5075944;28;19936;-80
2021/08/26 04:29:22;;;;;;;;;;;16.90;99.90;;;;;;5075443;28;20363;-80
2021/08/26 04:31:52;;;;;;;;;;;16.90;99.90;;;;;;5071200;28;19932;-80
2021/08/26 04:34:20;;;;;;;;;;;16.90;99.90;;;;;;5075475;28;19924;-79
2021/08/26 04:36:46;;;;;;;;;;;16.80;99.90;;;;;;5075422;28;19938;-80
2021/08/26 04:39:13;;;;;;;;;;;16.90;99.90;;;;;;5075231;28;19925;-79
2021/08/26 04:41:40;;;;;;;;;;;16.90;99.90;;;;;;5075346;28;19935;-79
2021/08/26 04:44:07;;;;;;;;;;;16.80;99.90;;;;;;5075370;28;19925;-79
2021/08/26 04:46:34;;;;;;;;;;;16.80;99.90;;;;;;5075298;28;20019;-79
2021/08/26 04:49:02;;;;;;;;;;;16.80;99.90;;;;;;5074871;28;19930;-79
2021/08/26 04:51:29;;;;;;;;;;;16.80;99.90;;;;;;5075057;28;19924;-79
2021/08/26 04:53:56;;;;;;;;;;;16.80;99.90;;;;;;5075182;28;19939;-80
2021/08/26 04:56:23;;;;;;;;;;;16.80;99.90;;;;;;5075149;28;19924;-80
2021/08/26 04:58:49;;;;;;;;;;;16.80;99.90;;;;;;5075005;28;20363;-79
2021/08/26 05:01:16;;;;;;;;;;;16.80;99.90;;;;;;5075018;28;19933;-80
2021/08/26 05:03:43;;;;;;;;;;;16.80;99.90;;;;;;5074792;28;19924;-80
2021/08/26 05:06:11;;;;;;;;;;;16.90;99.90;;;;;;5075160;28;20379;-80
2021/08/26 05:08:38;;;;;;;;;;;16.80;99.90;;;;;;5074853;28;19924;-80
2021/08/26 05:11:05;;;;;;;;;;;16.80;99.90;;;;;;5075127;28;19959;-80
2021/08/26 05:13:32;;;;;;;;;;;16.80;99.90;;;;;;5074992;28;20025;-80
2021/08/26 05:15:59;;;;;;;;;;;16.80;99.90;;;;;;5074825;28;19931;-80
2021/08/26 05:18:27;;;;;;;;;;;16.80;99.90;;;;;;5074504;28;19929;-80
2021/08/26 05:20:57;;;;;;;;;;;16.80;99.90;;;;;;5064296;28;19925;-80
2021/08/26 05:23:31;;;;;;;;;;;16.80;99.90;;;;;;5071911;28;19925;-80
2021/08/26 05:25:59;;;;;;;;;;;16.80;99.90;;;;;;5075275;28;19928;-80
2021/08/26 05:28:27;;;;;;;;;;;16.80;99.90;;;;;;5075260;28;19939;-79
2021/08/26 05:30:55;;;;;;;;;;;16.80;99.90;;;;;;5095227;28;20276;-80
2021/08/26 05:33:23;;;;;;;;;;;16.80;99.90;;;;;;5094905;28;19935;-80
2021/08/26 05:35:52;;;;;;;;;;;16.80;99.90;;;;;;5080398;28;19924;-80
2021/08/26 05:38:20;;;;;;;;;;;16.80;99.90;;;;;;5071891;28;19925;-79
2021/08/26 05:40:51;;;;;;;;;;;16.90;99.90;;;;;;5074148;28;20348;-80
2021/08/26 05:43:17;;;;;;;;;;;16.90;99.90;;;;;;5054877;28;19925;-80
2021/08/26 05:45:46;;;;;;;;;;;16.90;99.90;;;;;;5054690;28;20371;-79
2021/08/26 05:48:14;;;;;;;;;;;16.90;99.90;;;;;;5055051;28;19925;-80
2021/08/26 05:50:42;;;;;;;;;;;16.80;99.90;;;;;;5054454;28;20015;-79
2021/08/26 05:53:10;;;;;;;;;;;16.90;99.90;;;;;;5054514;28;19936;-79
2021/08/26 05:55:38;;;;;;;;;;;16.90;99.90;;;;;;5054603;28;19931;-80
2021/08/26 05:58:06;;;;;;;;;;;16.90;99.90;;;;;;5054357;28;19931;-80
2021/08/26 06:00:33;;;;;;;;;;;16.90;99.90;;;;;;5054476;28;19929;-79
2021/08/26 06:03:00;;;;;;;;;;;16.90;99.90;;;;;;5054371;28;20333;-80
2021/08/26 06:05:27;;;;;;;;;;;16.90;99.90;;;;;;5054264;28;19944;-80
2021/08/26 06:07:54;;;;;;;;;;;16.90;99.90;;;;;;5054515;28;19925;-80
2021/08/26 06:10:21;;;;;;;;;;;16.90;99.90;;;;;;5054500;28;20337;-80
2021/08/26 06:12:47;;;;;;;;;;;16.90;99.90;;;;;;5053927;28;19932;-80
2021/08/26 06:15:16;;;;;;;;;;;17.00;99.90;;;;;;5091921;28;19924;-80
2021/08/26 06:17:42;;;;;;;;;;;17.00;99.90;;;;;;5098178;28;19935;-80
2021/08/26 06:20:10;;;;;;;;;;;17.00;99.90;;;;;;5098097;28;19932;-79
2021/08/26 06:22:37;;;;;;;;;;;17.00;99.90;;;;;;5098409;28;19928;-79
2021/08/26 06:25:04;;;;;;;;;;;17.10;99.90;;;;;;5097983;28;19975;-80
2021/08/26 06:27:31;;;;;;;;;;;17.10;99.90;;;;;;5098276;28;19935;-80
2021/08/26 06:29:58;;;;;;;;;;;17.10;99.90;;;;;;5097954;28;19927;-80
2021/08/26 06:32:27;;;;;;;;;;;17.20;99.90;;;;;;5097785;28;19924;-79
2021/08/26 06:34:54;;;;;;;;;;;17.20;99.90;;;;;;5098138;28;19935;-79
2021/08/26 06:37:21;;;;;;;;;;;17.20;99.90;;;;;;5098155;28;19946;-79
2021/08/26 06:39:47;;;;;;;;;;;17.20;99.90;;;;;;5097812;28;19923;-80
2021/08/26 06:42:14;;;;;;;;;;;17.20;99.90;;;;;;5097863;28;19935;-80
2021/08/26 06:44:41;;;;;;;;;;;17.20;99.90;;;;;;5098100;28;20230;-79
2021/08/26 06:47:08;;;;;;;;;;;17.10;99.90;;;;;;5097526;28;19924;-79
2021/08/26 06:49:36;;;;;;;;;;;17.10;99.90;;;;;;5097700;28;19924;-79
2021/08/26 06:52:03;;;;;;;;;;;17.00;99.90;;;;;;5097435;28;20329;-80
2021/08/26 06:54:31;;;;;;;;;;;17.00;99.90;;;;;;5097524;28;19965;-80
2021/08/26 06:56:57;;;;;;;;;;;17.00;99.90;;;;;;5097446;28;20018;-79
2021/08/26 06:59:24;;;;;;;;;;;17.00;99.90;;;;;;5097456;28;19947;-80
2021/08/26 07:01:51;;;;;;;;;;;17.00;99.90;;;;;;5097757;28;19924;-80
2021/08/26 07:04:18;;;;;;;;;;;17.00;99.90;;;;;;5097602;28;19924;-79
2021/08/26 07:06:46;;;;;;;;;;;16.90;99.90;;;;;;5097510;28;19924;-79
2021/08/26 07:09:14;;;;;;;;;;;16.90;99.90;;;;;;5097203;28;19924;-79
2021/08/26 07:11:41;;;;;;;;;;;16.90;99.90;;;;;;5097257;28;19924;-79
2021/08/26 07:14:08;;;;;;;;;;;17.00;99.90;;;;;;5097100;28;19924;-80
2021/08/26 07:16:34;;;;;;;;;;;17.00;99.90;;;;;;5097017;28;19932;-80
2021/08/26 07:19:01;;;;;;;;;;;17.00;99.90;;;;;;5097432;28;19934;-80
2021/08/26 07:21:28;;;;;;;;;;;17.20;99.90;;;;;;5097242;28;19924;-80
2021/08/26 07:23:56;;;;;;;;;;;17.40;99.90;;;;;;5097020;28;20336;-79
2021/08/26 07:26:23;;;;;;;;;;;18.50;99.90;;;;;;5096970;28;19924;-79
2021/08/26 07:28:51;;;;;;;;;;;20.20;99.90;;;;;;5096829;28;19985;-79
2021/08/26 07:31:18;;;;;;;;;;;21.80;99.90;;;;;;5096837;28;20491;-79
2021/08/26 07:33:45;;;;;;;1.10;0.40;;;23.30;99.90;;;;;;5096755;28;20244;-80
2021/08/26 07:36:12;;;;;;;2.22;0.57;;;24.70;96.00;;;;;;5096425;28;20058;-80
2021/08/26 07:38:39;;;;;;;6.63;0.75;;;26.10;97.90;;;;;;5096352;28;20044;-80
2021/08/26 07:41:08;;;;;;;2.10;0.50;;;27.10;85.20;;;;;;5096233;28;20098;-80
2021/08/26 07:43:36;;;;;;;1.05;0.50;;;27.60;83.90;;;;;;5096035;28;20475;-80
2021/08/26 07:46:03;;;;;;;0.57;0.45;;;28.30;71.50;;;;;;5095961;28;20067;-80
2021/08/26 07:48:30;;;;;;;3.58;0.45;;;28.70;62.90;;;;;;5096185;28;20851;-80
2021/08/26 07:51:02;;;;;;;1.10;0.40;;;27.40;65.20;;;;;;5095930;28;20052;-80
2021/08/26 07:53:29;;;;;;;4.40;0.85;;;25.50;74.80;;;;;;5096034;28;20157;-80
2021/08/26 07:55:57;;;;;;;1.55;0.80;;;23.90;94.10;;;;;;5096456;28;20349;-80
2021/08/26 07:58:27;;;;;;;2.97;0.60;;;22.60;99.00;;;;;;5096270;28;20052;-80
2021/08/26 08:00:54;;;;;;;2.05;0.80;;;21.60;99.90;;;;;;5095238;28;20495;-79
2021/08/26 08:03:21;;;;;;;3.63;0.65;;;20.60;99.90;;;;;;5095879;28;20186;-80
2021/08/26 08:05:48;;;;;;;;;;;20.00;99.90;;;;;;5096048;28;20052;-80
2021/08/26 08:08:15;;;;;;;;;;;19.60;99.90;;;;;;5096137;28;19931;-79
2021/08/26 08:10:42;;;;;;;;;;;19.30;99.90;;;;;;5095985;28;19924;-79
2021/08/26 08:13:09;;;;;;;;;;;19.00;99.90;;;;;;5096299;28;19925;-79
2021/08/26 08:15:37;;;;;;;;;;;18.80;99.90;;;;;;5095974;28;20344;-79
2021/08/26 08:18:04;;;;;;;;;;;18.50;99.90;;;;;;5095716;28;19931;-79
2021/08/26 08:20:31;;;;;;;;;;;18.30;99.90;;;;;;5095987;28;19924;-79
2021/08/26 08:22:57;;;;;;;;;;;18.10;99.90;;;;;;5095751;28;19946;-79
2021/08/26 08:25:24;;;;;;;;;;;18.00;99.90;;;;;;5095845;28;19924;-79
2021/08/26 08:27:51;;;;;;;;;;;17.80;99.90;;;;;;5096017;28;19924;-79
2021/08/26 08:30:18;;;;;;;;;;;17.80;99.90;;;;;;5095581;28;20364;-79
2021/08/26 08:32:46;;;;;;;;;;;17.70;99.90;;;;;;5095496;28;19924;-79
2021/08/26 08:35:13;;;;;;;;;;;17.60;99.90;;;;;;5095693;28;20260;-79
2021/08/26 08:37:40;;;;;;;;;;;17.60;99.90;;;;;;5095137;28;19924;-80
2021/08/26 08:40:07;;;;;;;;;;;17.50;99.90;;;;;;5095795;28;19924;-79
2021/08/26 08:42:34;;;;;;;;;;;17.40;99.90;;;;;;5095548;28;19932;-79
2021/08/26 08:45:01;;;;;;;;;;;17.40;99.90;;;;;;5095726;28;19935;-80
2021/08/26 08:47:29;;;;;;;;;;;17.30;99.90;;;;;;5095601;28;19928;-79
2021/08/26 08:49:57;;;;;;;;;;;17.40;99.90;;;;;;5095452;28;19924;-79
2021/08/26 08:52:24;;;;;;;;;;;17.40;99.90;;;;;;5095322;28;20002;-79
2021/08/26 08:54:52;;;;;;;;;;;17.30;99.90;;;;;;5095356;28;19985;-79
2021/08/26 08:57:19;;;;;;;;;;;17.30;99.90;;;;;;5095314;28;20300;-79
2021/08/26 08:59:46;;;;;;;;;;;17.20;99.90;;;;;;5095349;28;19928;-79
2021/08/26 09:02:13;;;;;;;;;;;17.10;99.90;;;;;;5095685;28;19935;-80
2021/08/26 09:04:54;;;;;;;;;;;17.10;99.90;;;;;;5095304;28;19924;-80
2021/08/26 09:07:25;;;;;;;;;;;17.10;99.90;;;;;;5095278;28;19924;-80
2021/08/26 09:09:52;;;;;;;;;;;17.00;99.90;;;;;;5095240;28;20417;-80
2021/08/26 09:12:19;;;;;;;;;;;17.00;99.90;;;;;;5095344;28;20304;-80
2021/08/26 09:14:46;;;;;;;;;;;17.00;99.90;;;;;;5095082;28;19928;-80
2021/08/26 09:17:17;;;;;;;;;;;17.00;99.90;;;;;;5095232;28;19935;-80
2021/08/26 09:19:44;;;;;;;;;;;17.10;99.90;;;;;;5095284;28;19946;-80
2021/08/26 09:22:11;;;;;;;;;;;17.20;99.90;;;;;;5095321;28;19924;-79
2021/08/26 09:24:43;;;;;;;;;;;17.20;99.90;;;;;;5093637;28;19939;-80
2021/08/26 09:27:10;;;;;;;;;;;17.20;99.90;;;;;;5095151;28;20429;-80
2021/08/26 09:30:04;;;;;;;;;;;17.20;99.90;;;;;;5094830;28;19925;-79
2021/08/26 09:32:35;;;;;;;;;;;17.10;99.90;;;;;;5095173;28;19935;-79
2021/08/26 09:35:15;;;;;;;;;;;17.20;99.90;;;;;;5094992;28;19932;-79
2021/08/26 09:37:44;;;;;;;;;;;17.20;99.90;;;;;;5094962;28;19979;-80
2021/08/26 09:40:14;;;;;;;;;;;17.20;99.90;;;;;;5094618;28;19931;-79
2021/08/26 09:42:44;;;;;;;;;;;17.30;99.90;;;;;;5094799;28;19924;-80
2021/08/26 09:45:16;;;;;;;;;;;17.30;99.90;;;;;;5095048;28;20332;-80
2021/08/26 09:48:01;;;;;;;;;;;17.30;99.90;;;;;;5094835;28;20015;-80
2021/08/26 09:50:50;;;;;;;;;;;17.30;99.90;;;;;;5097922;28;19927;-80
2021/08/26 09:53:20;;;;;;;;;;;17.30;99.90;;;;;;5091736;28;19939;-79
2021/08/26 09:56:00;;;;;;;;;;;17.20;99.90;;;;;;5097978;28;19935;-80
2021/08/26 09:58:28;;;;;;;;;;;17.30;99.90;;;;;;5098816;28;19924;-80
2021/08/26 10:01:07;;;;;;;;;;;17.20;99.90;;;;;;5098592;28;19924;-80
2021/08/26 10:03:34;;;;;;;;;;;17.30;99.90;;;;;;5098429;28;20295;-80
2021/08/26 10:06:03;;;;;;;;;;;17.30;99.90;;;;;;5098661;28;20412;-80
2021/08/26 10:08:40;;;;;;;;;;;17.30;99.90;;;;;;5098706;28;19932;-79
2021/08/26 10:11:10;;;;;;;;;;;17.30;99.90;;;;;;5098581;28;19924;-79
2021/08/26 10:16:19;;;;;;;;;;;17.40;99.90;;;;;;5098309;28;19935;-79
2021/08/26 10:18:49;;;;;;;;;;;17.40;99.90;;;;;;5098298;28;19928;-80
2021/08/26 10:21:17;;;;;;;;;;;17.40;99.90;;;;;;5098255;28;19935;-80
2021/08/26 10:23:48;;;;;;;;;;;17.40;99.90;;;;;;5098308;28;19924;-80
2021/08/26 10:26:19;;;;;;;;;;;17.40;99.90;;;;;;5098047;28;19924;-79
2021/08/26 10:28:50;;;;;;;;;;;17.40;99.90;;;;;;5098171;28;19928;-80
2021/08/26 10:31:24;;;;;;;;;;;17.40;99.90;;;;;;5097637;28;19939;-79
2021/08/26 10:34:10;;;;;;;;;;;17.50;99.90;;;;;;5098283;28;19924;-79
2021/08/26 10:36:44;;;;;;;;;;;17.60;99.90;;;;;;5098059;28;19924;-80
2021/08/26 10:39:31;;;;;;;;;;;17.60;99.90;;;;;;5097836;28;20027;-79
2021/08/26 10:42:22;;;;;;;;;;;17.60;99.90;;;;;;5098068;28;19938;-79
2021/08/26 10:45:05;;;;;;;;;;;17.70;99.90;;;;;;5097738;28;19934;-79
2021/08/26 10:48:00;;;;;;;;;;;17.60;99.90;;;;;;5097752;28;20030;-79
2021/08/26 10:50:29;;;;;;;;;;;17.60;99.90;;;;;;5079497;28;19947;-79
2021/08/26 10:52:58;;;;;;;;;;;17.70;99.90;;;;;;5097228;28;19923;-80
2021/08/26 10:55:31;;;;;;;;;;;17.70;99.90;;;;;;5097641;28;19924;-79
2021/08/26 10:58:14;;;;;;;;;;;17.70;99.90;;;;;;5097941;28;19928;-79
2021/08/26 11:00:44;;;;;;;;;;;17.80;99.90;;;;;;5096037;28;19924;-79
2021/08/26 11:03:11;;;;;;;;;;;17.80;99.90;;;;;;5097426;28;19924;-79
2021/08/26 11:05:41;;;;;;;;;;;17.90;99.90;;;;;;5097668;28;19924;-80
2021/08/26 11:08:23;;;;;;;;;;;17.90;99.90;;;;;;5097370;28;20252;-80
2021/08/26 11:10:51;;;;;;;;;;;17.90;99.90;;;;;;5097163;28;19935;-78
2021/08/26 11:13:28;;;;;;;;;;;17.80;99.90;;;;;;5097712;28;19924;-85
2021/08/26 11:15:56;;;;;;;;;;;17.90;99.90;;;;;;5097497;28;19924;-80
2021/08/26 11:18:29;;;;;;;;;;;17.90;99.90;;;;;;5097116;28;19932;-80
2021/08/26 11:20:57;;;;;;;;;;;17.90;99.90;;;;;;5096594;28;19946;-78
2021/08/26 11:23:44;;;;;;;;;;;17.90;99.90;;;;;;5097078;28;20356;-80
2021/08/26 11:26:35;;;;;;;;;;;17.80;99.90;;;;;;5096909;28;20019;-80
2021/08/26 11:29:18;;;;;;;;;;;17.80;99.90;;;;;;5091491;28;20019;-81
2021/08/26 11:32:01;;;;;;;;;;;17.90;99.90;;;;;;5096630;28;19924;-80
2021/08/26 11:34:32;;;;;;;;;;;18.00;99.90;;;;;;5097233;28;20053;-81
2021/08/26 11:37:09;;;;;;;;;;;18.00;99.90;;;;;;5096147;28;19946;-80
2021/08/26 11:39:37;;;;;;;;;;;18.10;99.90;;;;;;5097187;28;20028;-80
2021/08/26 11:42:04;;;;;;;;;;;18.10;99.90;;;;;;5096482;28;19924;-80
2021/08/26 11:44:33;;;;;;;;;;;18.10;99.90;;;;;;5096522;28;19935;-80
2021/08/26 11:47:00;;;;;;;;;;;18.10;99.90;;;;;;5096508;28;19928;-80
2021/08/26 11:49:36;;;;;;;;;;;18.10;99.90;;;;;;5096561;28;19931;-79
2021/08/26 11:52:06;;;;;;;;;;;18.10;99.90;;;;;;5095952;28;20371;-79
2021/08/26 11:54:37;;;;;;;;;;;18.10;99.90;;;;;;5096085;28;19925;-78
2021/08/26 11:57:04;;;;;;;;;;;18.20;99.90;;;;;;5096499;28;19934;-78
2021/08/26 11:59:32;;;;;;;;;;;18.10;99.90;;;;;;5096433;28;19924;-80
2021/08/26 12:02:19;;;;;;;;;;;18.10;99.90;;;;;;5096579;28;19924;-80
2021/08/26 12:04:59;;;;;;;;;;;18.10;99.90;;;;;;5096211;28;20370;-80
2021/08/26 12:07:28;;;;;;;;;;;18.20;99.90;;;;;;5096377;28;19924;-82
2021/08/26 12:09:57;;;;;;;;;;;18.20;99.90;;;;;;5096334;28;19925;-79
2021/08/26 12:12:23;;;;;;;;;;;18.20;99.90;;;;;;5095564;28;20363;-79
2021/08/26 12:14:52;;;;;;;;;;;18.20;99.90;;;;;;5096121;28;20359;-78
2021/08/26 12:17:22;;;;;;;;;;;18.20;99.90;;;;;;5096011;28;19924;-80
2021/08/26 12:19:56;;;;;;;;;;;18.30;99.90;;;;;;5111975;28;19923;-80
2021/08/26 12:22:26;;;;;;;;;;;18.30;99.90;;;;;;5096328;28;20244;-76
2021/08/26 12:24:56;;;;;;;;;;;18.40;99.90;;;;;;5096075;28;20010;-80
2021/08/26 12:27:25;;;;;;;;;;;18.30;99.90;;;;;;5096450;28;20294;-80
2021/08/26 12:29:53;;;;;;;;;;;18.30;99.90;;;;;;5095833;28;19935;-80
2021/08/26 12:32:25;;;;;;;;;;;18.40;99.90;;;;;;5095977;28;19928;-80
2021/08/26 12:35:01;;;;;;;;;;;18.40;99.90;;;;;;5095898;28;19935;-80
2021/08/26 12:37:29;;;;;;;;;;;18.50;99.90;;;;;;5094361;28;19924;-80
2021/08/26 12:40:03;;;;;;;;;;;18.60;99.90;;;;;;5095676;28;19924;-80
2021/08/26 12:42:30;;;;;;;;;;;18.60;99.90;;;;;;5095518;28;20284;-78
2021/08/26 12:44:57;;;;;;;;;;;18.70;99.90;;;;;;5094638;28;19938;-80
2021/08/26 12:47:30;;;;;;;;;;;18.70;99.90;;;;;;5095417;28;20027;-80
2021/08/26 12:50:04;;;;;;;;;;;18.70;99.90;;;;;;5095360;28;19935;-80
2021/08/26 12:52:36;;;;;;;;;;;18.70;99.90;;;;;;5095120;28;20374;-80
2021/08/26 12:55:04;;;;;;;;;;;18.70;99.90;;;;;;5095361;28;19924;-80
2021/08/26 12:57:34;;;;;;;;;;;18.80;99.90;;;;;;5095200;28;19928;-80
2021/08/26 13:00:03;;;;;;;;;;;18.80;99.90;;;;;;5095732;28;20014;-81
2021/08/26 13:02:31;;;;;;;;;;;18.80;99.90;;;;;;5095361;28;20474;-81
2021/08/26 13:05:04;;;;;;;;;;;18.80;99.90;;;;;;5095543;28;19942;-80
2021/08/26 13:07:32;;;;;;;;;;;18.90;99.90;;;;;;5095497;28;19935;-80
2021/08/26 13:10:01;;;;;;;;;;;18.90;99.90;;;;;;5095109;28;19934;-79
2021/08/26 13:12:29;;;;;;;;;;;18.90;99.90;;;;;;5095271;28;19924;-78
2021/08/26 13:14:57;;;;;;;;;;;18.80;99.90;;;;;;5095190;28;19924;-80
2021/08/26 13:17:28;;;;;;;;;;;18.80;99.90;;;;;;5095074;28;19924;-80
2021/08/26 13:19:57;;;;;;;;;;;18.80;99.90;;;;;;5095294;28;19924;-80
2021/08/26 13:22:28;;;;;;;;;;;18.80;99.90;;;;;;5095262;28;19924;-79
2021/08/26 13:24:57;;;;;;;;;;;18.80;99.90;;;;;;5097583;28;19932;-79
2021/08/26 13:27:25;;;;;;;;;;;18.70;99.90;;;;;;5099401;28;19924;-80
2021/08/26 13:29:53;;;;;;;;;;;18.70;99.90;;;;;;5099266;28;19930;-81
2021/08/26 13:32:22;;;;;;;;;;;18.70;99.90;;;;;;5099242;28;20264;-89
2021/08/26 13:34:50;;;;;;;;;;;18.70;99.90;;;;;;5099293;28;19924;-81
2021/08/26 13:37:18;;;;;;;;;;;18.70;99.90;;;;;;5101661;28;19928;-81
2021/08/26 13:39:48;;;;;;;;;;;18.60;99.90;;;;;;5090596;28;19968;-80
2021/08/26 13:42:19;;;;;;;;;;;18.70;99.90;;;;;;5074949;28;19924;-81
2021/08/26 13:44:49;;;;;;;;;;;18.70;99.90;;;;;;5078713;28;19928;-81
2021/08/26 13:47:18;;;;;;;;;;;18.70;99.90;;;;;;5078687;28;20357;-81
2021/08/26 13:49:46;;;;;;;;;;;18.70;99.90;;;;;;5078690;28;19924;-81
2021/08/26 13:52:14;;;;;;;;;;;18.80;99.90;;;;;;5078078;28;19934;-81
2021/08/26 13:54:44;;;;;;;;;;;18.70;99.90;;;;;;5078539;28;20333;-81
2021/08/26 13:57:14;;;;;;;;;;;18.80;99.90;;;;;;5078425;28;20365;-81
2021/08/26 13:59:40;;;;;;;;;;;18.90;99.90;;;;;;5092126;28;20245;-81
2021/08/26 14:02:09;;;;;;;;;;;18.80;99.90;;;;;;5098481;28;19924;-81
2021/08/26 14:04:37;;;;;;;;;;;18.80;99.90;;;;;;5098353;28;20348;-80
2021/08/26 14:07:06;;;;;;;;;;;18.90;99.90;;;;;;5098573;28;19924;-81
2021/08/26 14:09:34;;;;;;;;;;;18.90;99.90;;;;;;5098356;28;20379;-81
2021/08/26 14:12:03;;;;;;;;;;;18.90;99.90;;;;;;5080620;28;19928;-81
2021/08/26 14:14:32;;;;;;;;;;;18.90;99.90;;;;;;5078008;28;19931;-81
2021/08/26 14:17:00;;;;;;;;;;;18.90;99.90;;;;;;5078111;28;19927;-81
2021/08/26 14:19:27;;;;;;;;;;;19.00;99.90;;;;;;5078270;28;19935;-80
2021/08/26 14:21:53;;;;;;;;;;;19.00;99.90;;;;;;5077963;28;20396;-80
2021/08/26 14:24:20;;;;;;;;;;;18.90;99.90;;;;;;5077910;28;19925;-80
2021/08/26 14:26:47;;;;;;;;;;;18.90;99.90;;;;;;5077119;28;19924;-82
2021/08/26 14:29:14;;;;;;;;;;;18.80;99.90;;;;;;5077965;28;20024;-80
2021/08/26 14:31:42;;;;;;;;;;;18.90;99.90;;;;;;5077984;28;20367;-81